sensor_id;sensor_type;location;lat;lon;timestamp;pressure;altitude;pressure_sealevel;temperature;humidity
72262;BME280;60173;52.112;8.648;2023-07-22T00:01:14;100373.19;;;11.13;100.00
72262;BME280;60173;52.112;8.648;2023-07-22T00:03:40;100367.66;;;11.04;100.00
72262;BME280;60173;52.112;8.648;2023-07-22T00:06:08;100372.09;;;11.00;100.00
72262;BME280;60173;52.112;8.648;2023-07-22T00:08:35;100376.59;;;11.05;100.00
72262;BME280;60173;52.112;8.648;2023-07-22T00:11:01;100377.53;;;11.00;100.00
72262;BME280;60173;52.112;8.648;2023-07-22T00:13:27;100371.91;;;10.97;100.00
72262;BME280;60173;52.112;8.648;2023-07-22T00:15:54;100376.41;;;11.01;100.00
72262;BME280;60173;52.112;8.648;2023-07-22T00:18:21;100372.72;;;10.97;100.00
72262;BME280;60173;52.112;8.648;2023-07-22T00:20:47;100365.44;;;10.93;100.00
72262;BME280;60173;52.112;8.648;2023-07-22T00:23:13;100360.53;;;10.95;100.00
72262;BME280;60173;52.112;8.648;2023-07-22T00:25:40;100358.41;;;10.92;100.00
72262;BME280;60173;52.112;8.648;2023-07-22T00:28:06;100360.44;;;11.00;100.00
72262;BME280;60173;52.112;8.648;2023-07-22T00:30:33;100362.25;;;10.91;100.00
72262;BME280;60173;52.112;8.648;2023-07-22T00:32:59;100360.44;;;10.86;100.00
72262;BME280;60173;52.112;8.648;2023-07-22T00:35:25;100364.38;;;10.94;100.00
72262;BME280;60173;52.112;8.648;2023-07-22T00:37:52;100365.25;;;11.03;100.00
72262;BME280;60173;52.112;8.648;2023-07-22T00:40:18;100365.53;;;11.15;100.00
72262;BME280;60173;52.112;8.648;2023-07-22T00:42:44;100366.44;;;11.24;100.00
72262;BME280;60173;52.112;8.648;2023-07-22T00:45:11;100366.84;;;11.31;100.00
72262;BME280;60173;52.112;8.648;2023-07-22T00:47:37;100362.38;;;11.36;100.00
72262;BME280;60173;52.112;8.648;2023-07-22T00:50:04;100358.53;;;11.37;100.00
72262;BME280;60173;52.112;8.648;2023-07-22T00:52:34;100361.47;;;11.40;100.00
72262;BME280;60173;52.112;8.648;2023-07-22T00:55:01;100358.06;;;11.35;100.00
72262;BME280;60173;52.112;8.648;2023-07-22T00:57:28;100362.38;;;11.36;100.00
72262;BME280;60173;52.112;8.648;2023-07-22T00:59:54;100360.97;;;11.38;100.00
72262;BME280;60173;52.112;8.648;2023-07-22T01:02:21;100360.56;;;11.31;100.00
72262;BME280;60173;52.112;8.648;2023-07-22T01:04:48;100358.28;;;11.24;100.00
72262;BME280;60173;52.112;8.648;2023-07-22T01:07:15;100356.88;;;11.27;100.00
72262;BME280;60173;52.112;8.648;2023-07-22T01:09:42;100352.41;;;11.31;100.00
72262;BME280;60173;52.112;8.648;2023-07-22T01:12:09;100358.06;;;11.35;100.00
72262;BME280;60173;52.112;8.648;2023-07-22T01:14:36;100342.84;;;11.34;100.00
72262;BME280;60173;52.112;8.648;2023-07-22T01:17:03;100342.75;;;11.39;100.00
72262;BME280;60173;52.112;8.648;2023-07-22T01:19:30;100344.84;;;11.42;100.00
72262;BME280;60173;52.112;8.648;2023-07-22T01:21:57;100340.81;;;11.39;100.00
72262;BME280;60173;52.112;8.648;2023-07-22T01:24:23;100348.91;;;11.30;100.00
72262;BME280;60173;52.112;8.648;2023-07-22T01:26:50;100339.75;;;11.26;100.00
72262;BME280;60173;52.112;8.648;2023-07-22T01:29:16;100348.09;;;11.30;100.00
72262;BME280;60173;52.112;8.648;2023-07-22T01:31:47;100353.78;;;11.20;100.00
72262;BME280;60173;52.112;8.648;2023-07-22T01:34:13;100349.53;;;11.14;100.00
72262;BME280;60173;52.112;8.648;2023-07-22T01:36:40;100346.50;;;11.15;100.00
72262;BME280;60173;52.112;8.648;2023-07-22T01:39:06;100351.34;;;11.04;100.00
72262;BME280;60173;52.112;8.648;2023-07-22T01:41:32;100351.06;;;11.06;100.00
72262;BME280;60173;52.112;8.648;2023-07-22T01:43:59;100355.47;;;11.02;100.00
72262;BME280;60173;52.112;8.648;2023-07-22T01:46:25;100353.97;;;10.96;100.00
72262;BME280;60173;52.112;8.648;2023-07-22T01:48:52;100347.56;;;10.92;100.00
72262;BME280;60173;52.112;8.648;2023-07-22T01:51:18;100351.97;;;10.88;100.00
72262;BME280;60173;52.112;8.648;2023-07-22T01:53:44;100343.31;;;10.85;100.00
72262;BME280;60173;52.112;8.648;2023-07-22T01:56:11;100341.31;;;10.77;100.00
72262;BME280;60173;52.112;8.648;2023-07-22T01:58:37;100347.34;;;10.74;100.00
72262;BME280;60173;52.112;8.648;2023-07-22T02:01:03;100356.00;;;10.76;100.00
72262;BME280;60173;52.112;8.648;2023-07-22T02:03:30;100348.56;;;10.68;100.00
72262;BME280;60173;52.112;8.648;2023-07-22T02:06:03;100351.75;;;10.70;100.00
72262;BME280;60173;52.112;8.648;2023-07-22T02:08:29;100348.94;;;10.75;100.00
72262;BME280;60173;52.112;8.648;2023-07-22T02:11:02;100351.19;;;10.73;100.00
72262;BME280;60173;52.112;8.648;2023-07-22T02:13:29;100349.47;;;10.77;100.00
72262;BME280;60173;52.112;8.648;2023-07-22T02:15:56;100354.38;;;10.75;100.00
72262;BME280;60173;52.112;8.648;2023-07-22T02:18:22;100354.00;;;10.68;100.00
72262;BME280;60173;52.112;8.648;2023-07-22T02:20:48;100352.34;;;10.67;100.00
72262;BME280;60173;52.112;8.648;2023-07-22T02:23:15;100348.25;;;10.70;100.00
72262;BME280;60173;52.112;8.648;2023-07-22T02:25:41;100355.59;;;10.69;100.00
72262;BME280;60173;52.112;8.648;2023-07-22T02:28:07;100356.72;;;10.68;100.00
72262;BME280;60173;52.112;8.648;2023-07-22T02:30:34;100357.78;;;10.67;100.00
72262;BME280;60173;52.112;8.648;2023-07-22T02:33:01;100360.63;;;10.62;100.00
72262;BME280;60173;52.112;8.648;2023-07-22T02:35:27;100357.91;;;10.62;100.00
72262;BME280;60173;52.112;8.648;2023-07-22T02:37:54;100360.41;;;10.58;100.00
72262;BME280;60173;52.112;8.648;2023-07-22T02:40:20;100358.59;;;10.54;100.00
72262;BME280;60173;52.112;8.648;2023-07-22T02:42:46;100360.00;;;10.51;100.00
72262;BME280;60173;52.112;8.648;2023-07-22T02:45:12;100366.84;;;10.49;100.00
72262;BME280;60173;52.112;8.648;2023-07-22T02:47:39;100364.13;;;10.49;100.00
72262;BME280;60173;52.112;8.648;2023-07-22T02:50:06;100361.03;;;10.69;100.00
72262;BME280;60173;52.112;8.648;2023-07-22T02:52:32;100360.63;;;10.62;100.00
72262;BME280;60173;52.112;8.648;2023-07-22T02:55:09;100360.59;;;10.48;100.00
72262;BME280;60173;52.112;8.648;2023-07-22T02:57:35;100357.78;;;10.39;100.00
72262;BME280;60173;52.112;8.648;2023-07-22T03:00:02;100361.38;;;10.35;100.00
72262;BME280;60173;52.112;8.648;2023-07-22T03:02:28;100350.13;;;10.28;100.00
72262;BME280;60173;52.112;8.648;2023-07-22T03:04:55;100358.09;;;10.19;100.00
72262;BME280;60173;52.112;8.648;2023-07-22T03:07:21;100349.25;;;10.13;100.00
72262;BME280;60173;52.112;8.648;2023-07-22T03:09:47;100367.72;;;10.11;100.00
72262;BME280;60173;52.112;8.648;2023-07-22T03:12:14;100366.41;;;10.09;100.00
72262;BME280;60173;52.112;8.648;2023-07-22T03:14:40;100363.47;;;10.05;100.00
72262;BME280;60173;52.112;8.648;2023-07-22T03:17:06;100356.59;;;10.13;100.00
72262;BME280;60173;52.112;8.648;2023-07-22T03:19:32;100355.69;;;10.17;100.00
72262;BME280;60173;52.112;8.648;2023-07-22T03:21:59;100366.16;;;10.24;100.00
72262;BME280;60173;52.112;8.648;2023-07-22T03:24:25;100367.19;;;10.28;100.00
72262;BME280;60173;52.112;8.648;2023-07-22T03:26:51;100376.47;;;10.41;100.00
72262;BME280;60173;52.112;8.648;2023-07-22T03:29:18;100370.56;;;10.53;100.00
72262;BME280;60173;52.112;8.648;2023-07-22T03:31:44;100380.13;;;10.64;100.00
72262;BME280;60173;52.112;8.648;2023-07-22T03:34:10;100381.75;;;10.65;100.00
72262;BME280;60173;52.112;8.648;2023-07-22T03:36:37;100382.06;;;10.77;100.00
72262;BME280;60173;52.112;8.648;2023-07-22T03:39:03;100380.94;;;10.78;100.00
72262;BME280;60173;52.112;8.648;2023-07-22T03:41:29;100377.63;;;10.81;100.00
72262;BME280;60173;52.112;8.648;2023-07-22T03:43:55;100379.72;;;10.84;100.00
72262;BME280;60173;52.112;8.648;2023-07-22T03:46:22;100378.94;;;10.84;100.00
72262;BME280;60173;52.112;8.648;2023-07-22T03:48:48;100384.00;;;10.91;100.00
72262;BME280;60173;52.112;8.648;2023-07-22T03:51:14;100386.81;;;10.99;100.00
72262;BME280;60173;52.112;8.648;2023-07-22T03:53:46;100376.94;;;11.03;100.00
72262;BME280;60173;52.112;8.648;2023-07-22T03:56:12;100387.00;;;11.03;100.00
72262;BME280;60173;52.112;8.648;2023-07-22T03:58:38;100387.38;;;11.10;100.00
72262;BME280;60173;52.112;8.648;2023-07-22T04:01:05;100388.78;;;11.21;100.00
72262;BME280;60173;52.112;8.648;2023-07-22T04:03:31;100386.59;;;11.23;100.00
72262;BME280;60173;52.112;8.648;2023-07-22T04:05:57;100384.38;;;11.25;100.00
72262;BME280;60173;52.112;8.648;2023-07-22T04:08:24;100381.03;;;11.28;100.00
72262;BME280;60173;52.112;8.648;2023-07-22T04:10:54;100383.25;;;11.26;100.00
72262;BME280;60173;52.112;8.648;2023-07-22T04:13:20;100386.59;;;11.23;100.00
72262;BME280;60173;52.112;8.648;2023-07-22T04:15:47;100390.69;;;11.35;100.00
72262;BME280;60173;52.112;8.648;2023-07-22T04:18:17;100392.19;;;11.41;100.00
72262;BME280;60173;52.112;8.648;2023-07-22T04:20:44;100394.59;;;11.42;100.00
72262;BME280;60173;52.112;8.648;2023-07-22T04:23:10;100388.34;;;11.42;100.00
72262;BME280;60173;52.112;8.648;2023-07-22T04:25:41;100379.66;;;11.53;100.00
72262;BME280;60173;52.112;8.648;2023-07-22T04:28:07;100374.91;;;11.59;100.00
72262;BME280;60173;52.112;8.648;2023-07-22T04:30:34;100397.41;;;11.51;100.00
72262;BME280;60173;52.112;8.648;2023-07-22T04:33:01;100392.88;;;11.46;100.00
72262;BME280;60173;52.112;8.648;2023-07-22T04:35:30;100392.97;;;11.55;100.00
72262;BME280;60173;52.112;8.648;2023-07-22T04:37:57;100392.66;;;11.57;100.00
72262;BME280;60173;52.112;8.648;2023-07-22T04:40:23;100396.84;;;11.63;100.00
72262;BME280;60173;52.112;8.648;2023-07-22T04:42:49;100407.81;;;11.71;100.00
72262;BME280;60173;52.112;8.648;2023-07-22T04:45:16;100399.56;;;11.76;100.00
72262;BME280;60173;52.112;8.648;2023-07-22T04:47:42;100399.66;;;11.85;100.00
72262;BME280;60173;52.112;8.648;2023-07-22T04:50:08;100409.63;;;11.76;100.00
72262;BME280;60173;52.112;8.648;2023-07-22T04:52:35;100404.81;;;11.73;100.00
72262;BME280;60173;52.112;8.648;2023-07-22T04:55:02;100405.94;;;11.72;100.00
72262;BME280;60173;52.112;8.648;2023-07-22T04:57:28;100401.78;;;11.74;100.00
72262;BME280;60173;52.112;8.648;2023-07-22T04:59:54;100404.59;;;11.83;100.00
72262;BME280;60173;52.112;8.648;2023-07-22T05:02:21;100406.41;;;11.88;100.00
72262;BME280;60173;52.112;8.648;2023-07-22T05:04:47;100401.97;;;11.92;100.00
72262;BME280;60173;52.112;8.648;2023-07-22T05:07:14;100405.16;;;11.94;100.00
72262;BME280;60173;52.112;8.648;2023-07-22T05:09:40;100412.41;;;11.98;100.00
72262;BME280;60173;52.112;8.648;2023-07-22T05:12:06;100400.91;;;12.02;100.00
72262;BME280;60173;52.112;8.648;2023-07-22T05:14:33;100403.53;;;12.07;100.00
72262;BME280;60173;52.112;8.648;2023-07-22T05:16:59;100411.94;;;12.19;100.00
72262;BME280;60173;52.112;8.648;2023-07-22T05:19:25;100411.88;;;12.33;100.00
72262;BME280;60173;52.112;8.648;2023-07-22T05:21:52;100408.88;;;12.43;100.00
72262;BME280;60173;52.112;8.648;2023-07-22T05:24:18;100415.16;;;12.52;100.00
72262;BME280;60173;52.112;8.648;2023-07-22T05:26:44;100413.13;;;12.58;100.00
72262;BME280;60173;52.112;8.648;2023-07-22T05:29:30;100407.88;;;12.61;100.00
72262;BME280;60173;52.112;8.648;2023-07-22T05:31:57;100421.84;;;12.69;100.00
72262;BME280;60173;52.112;8.648;2023-07-22T05:34:23;100420.53;;;12.66;100.00
72262;BME280;60173;52.112;8.648;2023-07-22T05:36:49;100426.16;;;12.70;100.00
72262;BME280;60173;52.112;8.648;2023-07-22T05:39:16;100422.34;;;12.71;100.00
72262;BME280;60173;52.112;8.648;2023-07-22T05:41:42;100423.81;;;12.77;100.00
72262;BME280;60173;52.112;8.648;2023-07-22T05:44:08;100421.41;;;12.84;100.00
72262;BME280;60173;52.112;8.648;2023-07-22T05:46:34;100426.09;;;12.92;100.00
72262;BME280;60173;52.112;8.648;2023-07-22T05:49:01;100424.88;;;13.07;100.00
72262;BME280;60173;52.112;8.648;2023-07-22T05:51:27;100424.78;;;13.21;100.00
72262;BME280;60173;52.112;8.648;2023-07-22T05:53:53;100416.34;;;13.31;100.00
72262;BME280;60173;52.112;8.648;2023-07-22T05:56:20;100418.47;;;13.51;100.00
72262;BME280;60173;52.112;8.648;2023-07-22T05:58:46;100418.28;;;13.56;100.00
72262;BME280;60173;52.112;8.648;2023-07-22T06:01:12;100418.16;;;13.88;100.00
72262;BME280;60173;52.112;8.648;2023-07-22T06:03:39;100412.84;;;14.00;98.20
72262;BME280;60173;52.112;8.648;2023-07-22T06:06:05;100409.63;;;14.24;96.56
72262;BME280;60173;52.112;8.648;2023-07-22T06:08:31;100412.66;;;14.31;95.96
72262;BME280;60173;52.112;8.648;2023-07-22T06:10:58;100413.31;;;14.37;94.51
72262;BME280;60173;52.112;8.648;2023-07-22T06:13:24;100421.66;;;14.40;94.14
72262;BME280;60173;52.112;8.648;2023-07-22T06:15:50;100419.25;;;14.39;94.42
72262;BME280;60173;52.112;8.648;2023-07-22T06:18:17;100429.56;;;14.16;94.94
72262;BME280;60173;52.112;8.648;2023-07-22T06:20:43;100429.72;;;14.19;95.82
72262;BME280;60173;52.112;8.648;2023-07-22T06:23:09;100424.56;;;14.35;95.60
72262;BME280;60173;52.112;8.648;2023-07-22T06:25:36;100422.50;;;14.23;94.32
72262;BME280;60173;52.112;8.648;2023-07-22T06:28:02;100426.66;;;14.30;94.49
72262;BME280;60173;52.112;8.648;2023-07-22T06:30:28;100418.28;;;14.35;94.95
72262;BME280;60173;52.112;8.648;2023-07-22T06:32:55;100413.94;;;14.60;94.43
72262;BME280;60173;52.112;8.648;2023-07-22T06:35:21;100413.53;;;14.87;93.19
72262;BME280;60173;52.112;8.648;2023-07-22T06:37:47;100407.59;;;15.15;91.45
72262;BME280;60173;52.112;8.648;2023-07-22T06:40:14;100413.63;;;15.29;89.50
72262;BME280;60173;52.112;8.648;2023-07-22T06:42:40;100418.06;;;15.43;88.42
72262;BME280;60173;52.112;8.648;2023-07-22T06:45:06;100416.94;;;15.14;87.84
72262;BME280;60173;52.112;8.648;2023-07-22T06:47:33;100412.34;;;14.97;88.91
72262;BME280;60173;52.112;8.648;2023-07-22T06:50:00;100421.75;;;15.17;88.79
72262;BME280;60173;52.112;8.648;2023-07-22T06:52:26;100412.31;;;15.35;87.68
72262;BME280;60173;52.112;8.648;2023-07-22T06:54:52;100412.84;;;15.50;85.66
72262;BME280;60173;52.112;8.648;2023-07-22T06:57:18;100414.41;;;15.59;85.70
72262;BME280;60173;52.112;8.648;2023-07-22T06:59:45;100416.59;;;15.75;85.09
72262;BME280;60173;52.112;8.648;2023-07-22T07:02:11;100417.06;;;15.77;84.61
72262;BME280;60173;52.112;8.648;2023-07-22T07:04:37;100412.09;;;16.12;84.99
72262;BME280;60173;52.112;8.648;2023-07-22T07:07:04;100421.06;;;16.34;82.84
72262;BME280;60173;52.112;8.648;2023-07-22T07:09:30;100413.34;;;16.48;86.55
72262;BME280;60173;52.112;8.648;2023-07-22T07:11:56;100418.75;;;16.69;82.39
72262;BME280;60173;52.112;8.648;2023-07-22T07:14:23;100425.31;;;16.89;82.71
72262;BME280;60173;52.112;8.648;2023-07-22T07:16:49;100422.75;;;16.71;81.24
72262;BME280;60173;52.112;8.648;2023-07-22T07:19:15;100416.88;;;16.82;81.75
72262;BME280;60173;52.112;8.648;2023-07-22T07:21:42;100420.31;;;16.91;81.95
72262;BME280;60173;52.112;8.648;2023-07-22T07:24:08;100419.84;;;16.89;80.20
72262;BME280;60173;52.112;8.648;2023-07-22T07:26:34;100414.41;;;16.68;79.76
72262;BME280;60173;52.112;8.648;2023-07-22T07:29:01;100419.78;;;16.52;82.26
72262;BME280;60173;52.112;8.648;2023-07-22T07:31:27;100415.44;;;16.63;82.38
72262;BME280;60173;52.112;8.648;2023-07-22T07:33:56;100421.78;;;17.01;78.27
72262;BME280;60173;52.112;8.648;2023-07-22T07:36:22;100416.44;;;17.29;78.85
72262;BME280;60173;52.112;8.648;2023-07-22T07:38:48;100417.28;;;17.70;78.26
72262;BME280;60173;52.112;8.648;2023-07-22T07:41:14;100422.88;;;17.86;76.24
72262;BME280;60173;52.112;8.648;2023-07-22T07:43:41;100420.34;;;18.21;75.71
72262;BME280;60173;52.112;8.648;2023-07-22T07:48:40;100417.91;;;18.47;72.20
72262;BME280;60173;52.112;8.648;2023-07-22T07:51:06;100409.41;;;18.52;70.85
72262;BME280;60173;52.112;8.648;2023-07-22T07:53:32;100418.63;;;18.44;71.18
72262;BME280;60173;52.112;8.648;2023-07-22T07:55:59;100417.28;;;17.70;74.87
72262;BME280;60173;52.112;8.648;2023-07-22T07:58:25;100415.94;;;17.51;75.33
72262;BME280;60173;52.112;8.648;2023-07-22T08:00:51;100415.59;;;17.65;75.41
72262;BME280;60173;52.112;8.648;2023-07-22T08:03:18;100421.25;;;17.97;74.26
72262;BME280;60173;52.112;8.648;2023-07-22T08:05:44;100420.19;;;18.29;73.37
72262;BME280;60173;52.112;8.648;2023-07-22T08:08:10;100411.97;;;18.45;73.41
72262;BME280;60173;52.112;8.648;2023-07-22T08:10:37;100416.97;;;18.56;71.98
72262;BME280;60173;52.112;8.648;2023-07-22T08:13:03;100413.00;;;18.69;73.30
72262;BME280;60173;52.112;8.648;2023-07-22T08:17:58;100418.38;;;18.49;72.67
72262;BME280;60173;52.112;8.648;2023-07-22T08:20:25;100411.38;;;18.68;73.88
72262;BME280;60173;52.112;8.648;2023-07-22T08:22:51;100416.72;;;18.61;73.85
72262;BME280;60173;52.112;8.648;2023-07-22T08:25:17;100414.50;;;18.22;73.17
72262;BME280;60173;52.112;8.648;2023-07-22T08:27:44;100422.72;;;18.22;74.62
72262;BME280;60173;52.112;8.648;2023-07-22T08:30:10;100418.25;;;18.30;74.75
72262;BME280;60173;52.112;8.648;2023-07-22T08:32:36;100417.84;;;18.16;74.10
72262;BME280;60173;52.112;8.648;2023-07-22T08:35:03;100417.69;;;18.24;74.65
72262;BME280;60173;52.112;8.648;2023-07-22T08:37:30;100422.16;;;18.29;75.03
72262;BME280;60173;52.112;8.648;2023-07-22T08:39:56;100419.00;;;18.15;73.21
72262;BME280;60173;52.112;8.648;2023-07-22T08:42:23;100417.28;;;18.38;72.32
72262;BME280;60173;52.112;8.648;2023-07-22T08:44:49;100430.19;;;18.66;72.78
72262;BME280;60173;52.112;8.648;2023-07-22T08:47:19;100423.38;;;19.23;71.05
72262;BME280;60173;52.112;8.648;2023-07-22T08:49:49;100422.91;;;19.53;71.18
72262;BME280;60173;52.112;8.648;2023-07-22T08:52:17;100425.03;;;19.43;68.37
72262;BME280;60173;52.112;8.648;2023-07-22T08:54:43;100431.41;;;19.12;69.72
72262;BME280;60173;52.112;8.648;2023-07-22T08:57:11;100424.69;;;19.29;70.16
72262;BME280;60173;52.112;8.648;2023-07-22T08:59:37;100418.97;;;19.54;69.19
72262;BME280;60173;52.112;8.648;2023-07-22T09:02:04;100418.00;;;19.46;68.93
72262;BME280;60173;52.112;8.648;2023-07-22T09:04:31;100419.19;;;19.45;71.38
72262;BME280;60173;52.112;8.648;2023-07-22T09:06:58;100417.22;;;19.46;70.93
72262;BME280;60173;52.112;8.648;2023-07-22T09:09:24;100413.38;;;19.66;66.68
72262;BME280;60173;52.112;8.648;2023-07-22T09:11:51;100415.69;;;19.83;66.74
72262;BME280;60173;52.112;8.648;2023-07-22T09:14:18;100410.66;;;20.05;66.58
72262;BME280;60173;52.112;8.648;2023-07-22T09:17:01;100406.44;;;20.11;67.32
72262;BME280;60173;52.112;8.648;2023-07-22T09:19:29;100416.66;;;20.11;68.01
72262;BME280;60173;52.112;8.648;2023-07-22T09:21:55;100417.22;;;19.81;64.97
72262;BME280;60173;52.112;8.648;2023-07-22T09:24:23;100407.59;;;19.91;65.79
72262;BME280;60173;52.112;8.648;2023-07-22T09:26:50;100410.94;;;20.00;64.98
72262;BME280;60173;52.112;8.648;2023-07-22T09:29:16;100406.66;;;20.45;65.54
72262;BME280;60173;52.112;8.648;2023-07-22T09:31:49;100410.50;;;19.98;66.90
72262;BME280;60173;52.112;8.648;2023-07-22T09:34:16;100411.78;;;20.04;65.13
72262;BME280;60173;52.112;8.648;2023-07-22T09:36:52;100410.78;;;19.73;66.65
72262;BME280;60173;52.112;8.648;2023-07-22T09:39:19;100414.25;;;19.90;66.11
72262;BME280;60173;52.112;8.648;2023-07-22T09:41:45;100405.88;;;20.02;66.54
72262;BME280;60173;52.112;8.648;2023-07-22T09:44:11;100409.69;;;19.97;66.75
72262;BME280;60173;52.112;8.648;2023-07-22T09:46:38;100398.38;;;20.02;63.05
72262;BME280;60173;52.112;8.648;2023-07-22T09:49:06;100402.72;;;20.23;64.93
72262;BME280;60173;52.112;8.648;2023-07-22T09:51:34;100396.47;;;20.26;64.57
72262;BME280;60173;52.112;8.648;2023-07-22T09:54:08;100401.63;;;20.50;65.53
72262;BME280;60173;52.112;8.648;2023-07-22T09:56:48;100399.69;;;20.97;63.29
72262;BME280;60173;52.112;8.648;2023-07-22T09:59:14;100396.94;;;20.74;63.35
72262;BME280;60173;52.112;8.648;2023-07-22T10:01:43;100394.56;;;20.30;63.66
72262;BME280;60173;52.112;8.648;2023-07-22T10:04:10;100393.94;;;19.78;64.49
72262;BME280;60173;52.112;8.648;2023-07-22T10:06:37;100391.16;;;19.08;67.90
72262;BME280;60173;52.112;8.648;2023-07-22T10:09:04;100394.50;;;18.53;69.82
72262;BME280;60173;52.112;8.648;2023-07-22T10:11:31;100391.06;;;18.13;70.45
72262;BME280;60173;52.112;8.648;2023-07-22T10:13:57;100400.56;;;17.87;73.04
72262;BME280;60173;52.112;8.648;2023-07-22T10:16:24;100404.31;;;17.95;70.45
72262;BME280;60173;52.112;8.648;2023-07-22T10:18:51;100401.47;;;17.91;69.81
72262;BME280;60173;52.112;8.648;2023-07-22T10:21:19;100396.41;;;17.93;69.17
72262;BME280;60173;52.112;8.648;2023-07-22T10:23:46;100385.72;;;18.48;69.53
72262;BME280;60173;52.112;8.648;2023-07-22T10:26:15;100376.75;;;19.30;65.87
72262;BME280;60173;52.112;8.648;2023-07-22T10:28:44;100374.22;;;19.96;61.05
72262;BME280;60173;52.112;8.648;2023-07-22T10:31:11;100367.56;;;19.97;61.80
72262;BME280;60173;52.112;8.648;2023-07-22T10:33:38;100366.06;;;20.65;60.69
72262;BME280;60173;52.112;8.648;2023-07-22T10:36:06;100369.41;;;21.27;59.41
72262;BME280;60173;52.112;8.648;2023-07-22T10:38:33;100363.38;;;21.44;55.57
72262;BME280;60173;52.112;8.648;2023-07-22T10:40:59;100367.88;;;21.30;56.52
72262;BME280;60173;52.112;8.648;2023-07-22T10:45:53;100359.47;;;21.49;56.32
72262;BME280;60173;52.112;8.648;2023-07-22T10:48:21;100350.56;;;21.93;53.51
72262;BME280;60173;52.112;8.648;2023-07-22T10:50:48;100354.59;;;22.37;54.09
72262;BME280;60173;52.112;8.648;2023-07-22T10:56:03;100344.00;;;21.75;54.32
72262;BME280;60173;52.112;8.648;2023-07-22T10:58:35;100339.25;;;21.75;55.96
72262;BME280;60173;52.112;8.648;2023-07-22T11:06:38;100332.47;;;22.40;51.98
72262;BME280;60173;52.112;8.648;2023-07-22T11:09:04;100329.69;;;22.37;54.46
72262;BME280;60173;52.112;8.648;2023-07-22T11:14:21;100335.66;;;22.05;52.60
72262;BME280;60173;52.112;8.648;2023-07-22T11:16:48;100327.00;;;21.73;53.88
72262;BME280;60173;52.112;8.648;2023-07-22T11:19:15;100327.31;;;21.64;55.09
72262;BME280;60173;52.112;8.648;2023-07-22T11:21:42;100324.03;;;21.88;55.07
72262;BME280;60173;52.112;8.648;2023-07-22T11:24:08;100319.53;;;22.10;54.56
72262;BME280;60173;52.112;8.648;2023-07-22T11:26:34;100319.47;;;22.07;53.79
72262;BME280;60173;52.112;8.648;2023-07-22T11:29:02;100325.41;;;22.05;53.51
72262;BME280;60173;52.112;8.648;2023-07-22T11:31:35;100320.50;;;22.29;53.28
72262;BME280;60173;52.112;8.648;2023-07-22T11:34:01;100316.19;;;22.31;52.68
72262;BME280;60173;52.112;8.648;2023-07-22T11:36:27;100303.63;;;22.04;52.06
72262;BME280;60173;52.112;8.648;2023-07-22T11:39:00;100302.84;;;22.03;52.38
72262;BME280;60173;52.112;8.648;2023-07-22T11:41:27;100304.78;;;21.99;52.37
72262;BME280;60173;52.112;8.648;2023-07-22T11:43:56;100306.69;;;22.29;51.70
72262;BME280;60173;52.112;8.648;2023-07-22T11:46:22;100296.00;;;22.79;50.33
72262;BME280;60173;52.112;8.648;2023-07-22T11:48:49;100294.78;;;22.76;50.35
72262;BME280;60173;52.112;8.648;2023-07-22T11:51:17;100291.75;;;22.37;50.10
72262;BME280;60173;52.112;8.648;2023-07-22T11:53:45;100297.44;;;22.59;50.88
72262;BME280;60173;52.112;8.648;2023-07-22T11:56:12;100295.41;;;22.48;51.23
72262;BME280;60173;52.112;8.648;2023-07-22T11:58:38;100295.31;;;22.41;49.69
72262;BME280;60173;52.112;8.648;2023-07-22T12:01:10;100301.97;;;22.33;51.42
72262;BME280;60173;52.112;8.648;2023-07-22T12:03:36;100289.28;;;22.25;51.06
72262;BME280;60173;52.112;8.648;2023-07-22T12:06:03;100287.75;;;21.94;50.89
72262;BME280;60173;52.112;8.648;2023-07-22T12:08:29;100293.63;;;21.88;51.83
72262;BME280;60173;52.112;8.648;2023-07-22T12:10:59;100289.81;;;22.45;49.87
72262;BME280;60173;52.112;8.648;2023-07-22T12:13:25;100293.66;;;22.81;47.80
72262;BME280;60173;52.112;8.648;2023-07-22T12:18:27;100278.09;;;23.17;47.71
72262;BME280;60173;52.112;8.648;2023-07-22T12:20:53;100284.50;;;23.39;46.90
72262;BME280;60173;52.112;8.648;2023-07-22T12:23:19;100284.44;;;23.21;50.17
72262;BME280;60173;52.112;8.648;2023-07-22T12:25:46;100279.25;;;22.58;47.98
72262;BME280;60173;52.112;8.648;2023-07-22T12:28:12;100289.94;;;21.77;49.21
72262;BME280;60173;52.112;8.648;2023-07-22T12:30:38;100283.06;;;21.34;50.13
72262;BME280;60173;52.112;8.648;2023-07-22T12:33:05;100287.63;;;21.19;52.44
72262;BME280;60173;52.112;8.648;2023-07-22T12:35:31;100280.78;;;21.09;51.60
72262;BME280;60173;52.112;8.648;2023-07-22T12:37:57;100283.41;;;21.29;51.63
72262;BME280;60173;52.112;8.648;2023-07-22T12:40:23;100273.31;;;21.40;51.27
72262;BME280;60173;52.112;8.648;2023-07-22T12:42:50;100283.03;;;21.60;51.52
72262;BME280;60173;52.112;8.648;2023-07-22T12:45:16;100273.78;;;21.79;51.87
72262;BME280;60173;52.112;8.648;2023-07-22T12:47:42;100268.75;;;22.33;49.45
72262;BME280;60173;52.112;8.648;2023-07-22T12:50:09;100272.44;;;22.99;50.89
72262;BME280;60173;52.112;8.648;2023-07-22T12:52:36;100267.50;;;22.71;47.08
72262;BME280;60173;52.112;8.648;2023-07-22T12:55:02;100264.06;;;22.37;47.29
72262;BME280;60173;52.112;8.648;2023-07-22T12:57:28;100267.66;;;22.41;48.65
72262;BME280;60173;52.112;8.648;2023-07-22T12:59:55;100269.53;;;22.85;46.49
72262;BME280;60173;52.112;8.648;2023-07-22T13:02:21;100258.72;;;23.24;44.89
72262;BME280;60173;52.112;8.648;2023-07-22T13:04:47;100257.88;;;23.10;46.79